createdAt,value
2019-03-25T00:11:41.000Z,15.88
2019-03-25T00:31:50.442Z,15.60
2019-03-25T00:52:02.130Z,16.76
2019-03-25T01:12:01.584Z,16.28
2019-03-25T01:32:13.378Z,16.24
2019-03-25T01:52:12.870Z,14.88
2019-03-25T02:12:22.479Z,17.63
2019-03-25T02:32:30.476Z,18.19
2019-03-25T02:52:42.417Z,17.80
2019-03-25T03:12:41.836Z,17.05
2019-03-25T03:32:51.177Z,20.13
2019-03-25T03:53:00.619Z,22.07
2019-03-25T04:13:10.029Z,18.97
2019-03-25T04:33:19.521Z,23.96
2019-03-25T04:53:31.162Z,31.59
2019-03-25T05:13:30.618Z,29.92
2019-03-25T05:33:40.254Z,31.89
2019-03-25T05:53:49.721Z,34.86
2019-03-25T06:13:57.661Z,27.14
2019-03-25T06:34:09.299Z,18.98
2019-03-25T06:54:08.673Z,17.10
2019-03-25T07:14:18.060Z,18.73
2019-03-25T07:34:26.173Z,20.51
2019-03-25T07:54:35.650Z,21.82
2019-03-25T08:14:45.049Z,27.91
2019-03-25T08:34:54.504Z,24.97
2019-03-25T08:55:06.111Z,20.65
2019-03-25T09:15:05.923Z,19.36
2019-03-25T09:35:15.486Z,18.11
2019-03-25T09:55:25.093Z,16.04
2019-03-25T10:15:34.612Z,16.03
2019-03-25T10:35:44.245Z,12.51
2019-03-25T10:55:56.386Z,17.52
2019-03-25T11:15:55.971Z,16.09
2019-03-25T11:36:05.659Z,16.74
2019-03-25T11:56:15.239Z,14.82
2019-03-25T12:16:27.110Z,15.98
2019-03-25T12:36:26.596Z,13.69
2019-03-25T12:56:36.053Z,16.22
2019-03-25T13:16:45.603Z,14.72
2019-03-25T13:36:55.032Z,15.75
2019-03-25T13:57:04.525Z,15.23
2019-03-25T14:17:14.075Z,16.05
2019-03-25T14:37:23.850Z,16.28
2019-03-25T14:57:33.285Z,13.91
2019-03-25T15:17:42.784Z,14.37
2019-03-25T15:37:52.301Z,14.67
2019-03-25T15:58:02.260Z,14.68
2019-03-25T16:18:11.854Z,15.43
2019-03-25T16:38:21.511Z,15.62
2019-03-25T16:58:31.087Z,17.16
2019-03-25T17:18:40.846Z,24.89
2019-03-25T17:38:50.454Z,36.70
2019-03-25T17:59:00.059Z,24.57
2019-03-25T18:19:09.546Z,23.82
2019-03-25T18:39:19.067Z,25.66
2019-03-25T18:59:28.685Z,33.77
2019-03-25T19:19:40.404Z,28.46
2019-03-25T19:39:39.887Z,49.90
2019-03-25T19:59:51.648Z,48.55
2019-03-25T20:19:53.341Z,49.96
2019-03-25T20:39:52.878Z,27.44
2019-03-25T21:00:02.283Z,22.24
2019-03-25T21:20:11.840Z,22.53
2019-03-25T21:40:21.358Z,22.18
2019-03-25T22:00:30.880Z,21.10
2019-03-25T22:20:40.297Z,18.02
2019-03-25T22:40:49.770Z,13.64
2019-03-25T23:00:59.275Z,11.07
2019-03-25T23:21:08.796Z,13.27
2019-03-25T23:41:22.849Z,13.41
